< < Back
Terminal Aerodrome Forecast


Current Version              Previous Versions:   1  2  3  4  5  6  7  8  9  

Terminal Aerodrome Forecast

432
FTUS42 KTAE 251100
TAFDHN
TAF
KDHN 251131Z 2512/2612 01007KT P6SM VCSH BKN040 OVC100
     FM252000 01007KT 6SM -RA OVC040
     FM260200 35009KT P6SM VCSH OVC050
     FM260600 34007KT P6SM SCT050 BKN150=



Latest METAR

068
SAUS70 KWBC 260500 RRF
MTRDHN
METAR KDHN 260453Z AUTO 00000KT 7SM -RA OVC070 09/08 A3009 RMK AO2
SLP187 P0002 T00940083


USA.gov is the U.S. government's official web portal to all federal, state and local government web resources and services.